Time;durP1;ratioP1;P1;durP2;ratioP2;P2;SDS_P1;SDS_P2;PMS_P1;PMS_P2;Temp;Humidity;BMP_temperature;BMP_pressure;BME280_temperature;BME280_humidity;BME280_pressure;Samples;Min_cycle;Max_cycle;Signal;HPM_P1;HPM_P2
2023/11/16 00:01:49;;;;;;;4.10;1.75;;;;;;;5.80;100.00;98418.50;6098712;19;20035;-75
2023/11/16 00:03:53;;;;;;;4.80;2.33;;;;;;;5.75;100.00;98416.00;6101398;19;20496;-76
2023/11/16 00:05:53;;;;;;;3.63;2.10;;;;;;;5.80;100.00;98417.69;6098614;19;20006;-76
2023/11/16 00:07:55;;;;;;;4.13;1.95;;;;;;;5.76;100.00;98420.31;6098967;19;20355;-76
2023/11/16 00:09:55;;;;;;;4.88;2.15;;;;;;;5.69;100.00;98422.84;6100091;19;20501;-76
2023/11/16 00:11:56;;;;;;;4.43;2.30;;;;;;;5.68;100.00;98437.72;6099663;19;20007;-75
2023/11/16 00:13:57;;;;;;;5.13;1.88;;;;;;;5.71;100.00;98431.56;6100601;19;20410;-75
2023/11/16 00:15:57;;;;;;;4.43;2.55;;;;;;;5.59;100.00;98426.09;6099690;19;20037;-76
2023/11/16 00:17:57;;;;;;;5.95;2.55;;;;;;;5.52;100.00;98423.91;6098113;19;20645;-76
2023/11/16 00:19:58;;;;;;;4.50;2.22;;;;;;;5.44;100.00;98411.13;6101740;19;20467;-76
2023/11/16 00:21:59;;;;;;;4.50;2.17;;;;;;;5.39;100.00;98399.63;6102838;19;20451;-76
2023/11/16 00:23:59;;;;;;;4.32;2.20;;;;;;;5.37;100.00;98416.41;6101046;19;20011;-75
2023/11/16 00:25:59;;;;;;;8.07;3.00;;;;;;;5.32;100.00;98409.22;6101052;19;20268;-76
2023/11/16 00:28:00;;;;;;;2.88;2.10;;;;;;;5.27;100.00;98408.66;6097128;19;20014;-76
2023/11/16 00:30:02;;;;;;;3.75;1.98;;;;;;;5.24;100.00;98401.13;6092203;19;20187;-75
2023/11/16 00:32:04;;;;;;;6.28;2.00;;;;;;;5.28;100.00;98404.75;6089403;19;20003;-76
2023/11/16 00:34:05;;;;;;;4.88;2.22;;;;;;;5.29;100.00;98398.91;6092290;19;20422;-76
2023/11/16 00:36:11;;;;;;;3.80;2.03;;;;;;;5.32;100.00;98400.19;6091394;19;20308;-76
2023/11/16 00:38:13;;;;;;;4.63;2.15;;;;;;;5.38;100.00;98398.81;6093402;19;20044;-76
2023/11/16 00:40:13;;;;;;;3.65;2.00;;;;;;;5.45;100.00;98409.19;6093560;19;20007;-75
2023/11/16 00:42:16;;;;;;;5.55;2.28;;;;;;;5.46;100.00;98406.13;6090965;19;20107;-75
2023/11/16 00:44:19;;;;;;;3.13;1.63;;;;;;;5.53;100.00;98395.34;6090512;19;20007;-76
2023/11/16 00:46:22;;;;;;;3.33;1.80;;;;;;;5.55;100.00;98401.28;6092184;19;20007;-75
2023/11/16 00:48:23;;;;;;;4.88;2.20;;;;;;;5.58;100.00;98397.03;6089966;19;20010;-75
2023/11/16 00:50:23;;;;;;;4.85;2.17;;;;;;;5.58;100.00;98402.53;6090411;19;20148;-76
2023/11/16 00:52:24;;;;;;;6.00;2.08;;;;;;;5.57;100.00;98398.19;6092411;19;20007;-75
2023/11/16 00:54:25;;;;;;;5.47;2.10;;;;;;;5.55;100.00;98398.56;6092164;19;22946;-76
2023/11/16 00:56:25;;;;;;;3.22;2.08;;;;;;;5.62;100.00;98406.97;6091500;19;20331;-75
2023/11/16 00:58:25;;;;;;;3.33;1.75;;;;;;;5.72;100.00;98392.00;6092554;19;20010;-76
2023/11/16 01:00:27;;;;;;;4.72;1.90;;;;;;;5.75;100.00;98393.22;6092499;19;20020;-75
2023/11/16 01:02:30;;;;;;;5.25;2.20;;;;;;;5.74;100.00;98395.19;6091941;19;20003;-75
2023/11/16 01:04:30;;;;;;;3.53;2.05;;;;;;;5.73;100.00;98392.78;6092328;19;20003;-76
2023/11/16 01:06:33;;;;;;;6.07;2.50;;;;;;;5.72;100.00;98388.44;6091045;19;20455;-76
2023/11/16 01:08:36;;;;;;;5.60;2.15;;;;;;;5.78;100.00;98398.00;6092169;19;19999;-75
2023/11/16 01:10:43;;;;;;;9.13;2.85;;;;;;;5.77;100.00;98393.66;6090243;19;20040;-76
2023/11/16 01:12:46;;;;;;;3.63;2.00;;;;;;;5.72;100.00;98393.94;6092831;19;20363;-75
2023/11/16 01:14:46;;;;;;;6.35;2.38;;;;;;;5.71;100.00;98384.06;6091363;19;19998;-75
2023/11/16 01:16:49;;;;;;;7.63;2.15;;;;;;;5.70;100.00;98390.72;6090057;19;20041;-75
2023/11/16 01:18:50;;;;;;;3.03;1.77;;;;;;;5.67;100.00;98385.94;6092139;19;20014;-75
2023/11/16 01:20:57;;;;;;;5.28;2.92;;;;;;;5.71;100.00;98393.13;6092306;19;20536;-75
2023/11/16 01:23:11;;;;;;;6.68;2.47;;;;;;;5.65;100.00;98383.53;6090674;19;20006;-75
2023/11/16 01:25:15;;;;;;;6.78;2.00;;;;;;;5.59;100.00;98391.22;6091727;19;20210;-76
2023/11/16 01:27:17;;;;;;;2.47;1.88;;;;;;;5.53;100.00;98387.09;6089600;19;20021;-76
2023/11/16 01:29:18;;;;;;;4.80;1.80;;;;;;;5.54;100.00;98394.19;6101100;19;20409;-75
2023/11/16 01:31:22;;;;;;;5.40;1.92;;;;;;;5.55;100.00;98397.75;6100135;19;20018;-76
2023/11/16 01:33:22;;;;;;;4.45;1.73;;;;;;;5.53;100.00;98395.34;6098759;19;20446;-75
2023/11/16 01:35:25;;;;;;;2.83;1.88;;;;;;;5.54;100.00;98388.69;6100471;19;20014;-75
2023/11/16 01:37:25;;;;;;;4.68;1.95;;;;;;;5.54;100.00;98387.91;6096452;19;20014;-75
2023/11/16 01:39:26;;;;;;;6.63;2.60;;;;;;;5.59;100.00;98393.94;6098358;19;20024;-75
2023/11/16 01:41:26;;;;;;;3.65;1.95;;;;;;;5.63;100.00;98392.13;6099811;19;20010;-76
2023/11/16 01:43:27;;;;;;;8.82;2.20;;;;;;;5.63;100.00;98380.34;6100227;19;20015;-76
2023/11/16 01:45:32;;;;;;;8.55;2.10;;;;;;;5.59;100.00;98384.91;6099538;19;20661;-75
2023/11/16 01:47:32;;;;;;;4.60;2.03;;;;;;;5.54;100.00;98388.69;6099227;19;20024;-75
2023/11/16 01:49:33;;;;;;;5.43;2.20;;;;;;;5.45;100.00;98382.53;6097857;19;20436;-75
2023/11/16 01:51:36;;;;;;;4.63;1.95;;;;;;;5.48;100.00;98383.81;6099693;19;19998;-75
2023/11/16 01:53:52;;;;;;;10.45;2.17;;;;;;;5.43;100.00;98376.59;6099592;19;20010;-75
2023/11/16 01:55:54;;;;;;;4.28;2.00;;;;;;;5.46;100.00;98375.94;6098725;19;20006;-75
2023/11/16 01:57:55;;;;;;;;;;;;;;;5.56;100.00;98385.63;6099817;19;20471;-75
2023/11/16 01:59:56;;;;;;;4.85;1.88;;;;;;;5.62;100.00;98375.97;6099363;19;19919;-75
2023/11/16 02:01:56;;;;;;;4.68;2.03;;;;;;;5.61;100.00;98374.38;6099869;19;20007;-75
2023/11/16 02:03:57;;;;;;;4.18;1.75;;;;;;;5.62;100.00;98373.25;6096653;19;20006;-76
2023/11/16 02:05:58;;;;;;;3.60;1.42;;;;;;;5.59;100.00;98380.22;6101792;19;20010;-76
2023/11/16 02:08:05;;;;;;;4.82;2.00;;;;;;;5.61;100.00;98377.13;6101179;19;20006;-76
2023/11/16 02:10:06;;;;;;;5.72;2.05;;;;;;;5.64;100.00;98382.75;6104297;19;20010;-75
2023/11/16 02:12:06;;;;;;;5.65;1.80;;;;;;;5.64;100.00;98373.72;6105285;19;20011;-75
2023/11/16 02:14:07;;;;;;;4.93;1.80;;;;;;;5.64;100.00;98376.44;6103687;19;20007;-76
2023/11/16 02:16:08;;;;;;;5.63;2.10;;;;;;;5.65;100.00;98380.78;6104085;19;20035;-75
2023/11/16 02:18:08;;;;;;;6.97;1.92;;;;;;;5.66;100.00;98373.34;6103299;19;20308;-75
2023/11/16 02:20:09;;;;;;;5.07;2.08;;;;;;;5.76;100.00;98381.91;6104502;19;20425;-75
2023/11/16 02:22:10;;;;;;;3.05;2.00;;;;;;;5.73;100.00;98373.56;6105457;19;20044;-75
2023/11/16 02:24:12;;;;;;;2.08;1.65;;;;;;;5.72;100.00;98374.72;6104962;19;20006;-75
2023/11/16 02:26:12;;;;;;;2.95;1.90;;;;;;;5.65;100.00;98367.06;6104006;19;20010;-76
2023/11/16 02:28:13;;;;;;;5.78;2.00;;;;;;;5.66;100.00;98376.91;6104788;19;19999;-76
2023/11/16 02:30:14;;;;;;;5.10;1.70;;;;;;;5.61;100.00;98372.44;6104662;19;20010;-75
2023/11/16 02:32:15;;;;;;;5.97;1.98;;;;;;;5.65;100.00;98367.06;6105496;19;20427;-76
2023/11/16 02:34:15;;;;;;;6.93;2.38;;;;;;;5.58;100.00;98372.34;6104572;19;20514;-75
2023/11/16 02:36:15;;;;;;;4.40;1.67;;;;;;;5.62;100.00;98367.75;6103606;19;20014;-75
2023/11/16 02:38:17;;;;;;;9.52;1.83;;;;;;;5.57;100.00;98374.28;6105237;19;20831;-75
2023/11/16 02:40:17;;;;;;;2.47;1.55;;;;;;;5.59;100.00;98365.72;6104321;19;19999;-75
2023/11/16 02:42:18;;;;;;;2.47;1.67;;;;;;;5.55;100.00;98368.38;6104188;19;20007;-75
2023/11/16 02:44:18;;;;;;;2.50;1.70;;;;;;;5.51;100.00;98361.97;6104517;19;20003;-75
2023/11/16 02:46:19;;;;;;;3.42;1.63;;;;;;;5.51;100.00;98369.38;6100839;19;20001;-75
2023/11/16 02:48:19;;;;;;;3.15;1.58;;;;;;;5.57;100.00;98363.31;6101929;19;20091;-76
2023/11/16 02:50:22;;;;;;;2.65;1.70;;;;;;;5.54;100.00;98366.75;6106093;19;20016;-75
2023/11/16 02:52:22;;;;;;;5.05;1.85;;;;;;;5.49;100.00;98357.97;6101952;19;20040;-75
2023/11/16 02:54:23;;;;;;;4.50;1.67;;;;;;;5.53;100.00;98367.88;6103914;19;20361;-75
2023/11/16 02:56:23;;;;;;;1.98;1.50;;;;;;;5.53;100.00;98369.84;6102985;19;20070;-75
2023/11/16 02:58:23;;;;;;;8.80;1.90;;;;;;;5.49;100.00;98366.19;6103903;19;20010;-75
2023/11/16 03:00:24;;;;;;;5.35;1.83;;;;;;;5.46;100.00;98364.97;6101036;19;20029;-75
2023/11/16 03:02:25;;;;;;;3.90;1.65;;;;;;;5.47;100.00;98365.75;6104306;19;20398;-75
2023/11/16 03:04:25;;;;;;;2.58;1.40;;;;;;;5.53;100.00;98361.59;6104298;19;20014;-75
2023/11/16 03:06:26;;;;;;;2.35;1.50;;;;;;;5.62;100.00;98367.75;6103263;19;20031;-75
2023/11/16 03:08:27;;;;;;;3.50;1.30;;;;;;;5.59;100.00;98369.25;6103796;19;20451;-75
2023/11/16 03:10:28;;;;;;;3.80;1.50;;;;;;;5.54;100.00;98369.47;6103865;19;20024;-75
2023/11/16 03:12:29;;;;;;;3.72;1.70;;;;;;;5.49;100.00;98377.97;6104209;19;20297;-75
2023/11/16 03:14:30;;;;;;;3.22;1.60;;;;;;;5.46;100.00;98370.44;6104433;19;20249;-75
2023/11/16 03:16:30;;;;;;;4.57;1.50;;;;;;;5.42;100.00;98358.56;6102032;19;20030;-75
2023/11/16 03:18:31;;;;;;;4.45;2.28;;;;;;;5.40;100.00;98363.59;6103797;19;20007;-75
2023/11/16 03:20:32;;;;;;;3.65;1.60;;;;;;;5.40;100.00;98358.09;6103416;19;20034;-76
2023/11/16 03:22:34;;;;;;;6.05;2.22;;;;;;;5.38;100.00;98360.41;6103247;19;20030;-75
2023/11/16 03:24:34;;;;;;;6.10;1.92;;;;;;;5.33;100.00;98360.63;6103143;19;20010;-75
2023/11/16 03:26:35;;;;;;;2.72;1.40;;;;;;;5.33;100.00;98357.88;6103282;19;20339;-75
2023/11/16 03:28:39;;;;;;;4.32;1.20;;;;;;;5.39;100.00;98355.72;6103082;19;20200;-75
2023/11/16 03:30:39;;;;;;;3.20;1.52;;;;;;;5.44;100.00;98359.00;6103823;19;20019;-75
2023/11/16 03:32:40;;;;;;;4.05;1.80;;;;;;;5.39;100.00;98359.25;6102988;19;20602;-75
2023/11/16 03:34:41;;;;;;;2.83;1.63;;;;;;;5.36;100.00;98352.50;6103477;19;20080;-75
2023/11/16 03:36:42;;;;;;;2.15;1.55;;;;;;;5.34;100.00;98351.25;6101064;19;20023;-76
2023/11/16 03:38:45;;;;;;;2.85;1.40;;;;;;;5.33;100.00;98344.16;6103924;19;20475;-75
2023/11/16 03:40:45;;;;;;;7.38;1.73;;;;;;;5.42;100.00;98355.00;6103794;19;20013;-75
2023/11/16 03:42:45;;;;;;;3.67;1.38;;;;;;;5.39;100.00;98345.53;6102203;19;20398;-75
2023/11/16 03:44:46;;;;;;;4.25;1.80;;;;;;;5.37;100.00;98342.31;6102961;19;20337;-75
2023/11/16 03:46:46;;;;;;;4.47;1.58;;;;;;;5.41;100.00;98345.97;6101927;19;20003;-75
2023/11/16 03:48:47;;;;;;;2.85;1.50;;;;;;;5.34;100.00;98345.75;6103177;19;20020;-75
2023/11/16 03:50:47;;;;;;;2.25;1.23;;;;;;;5.33;100.00;98350.47;6103693;19;20014;-75
2023/11/16 03:52:48;;;;;;;2.65;1.85;;;;;;;5.25;100.00;98345.09;6102554;19;20010;-75
2023/11/16 03:54:48;;;;;;;3.65;1.38;;;;;;;5.27;100.00;98346.34;6102568;19;20006;-75
2023/11/16 03:56:54;;;;;;;4.60;1.77;;;;;;;5.25;100.00;98350.59;6100610;19;20010;-75
2023/11/16 03:58:54;;;;;;;4.82;1.73;;;;;;;5.23;100.00;98341.91;6101730;19;20029;-75
2023/11/16 04:00:55;;;;;;;4.63;1.70;;;;;;;5.28;100.00;98352.63;6102689;19;20014;-75
2023/11/16 04:02:58;;;;;;;5.07;1.65;;;;;;;5.32;100.00;98342.56;6100995;19;20815;-74
2023/11/16 04:04:58;;;;;;;5.40;1.65;;;;;;;5.29;100.00;98349.53;6100508;19;20089;-75
2023/11/16 04:06:59;;;;;;;3.65;1.30;;;;;;;5.28;100.00;98345.19;6101108;19;20006;-75
2023/11/16 04:08:59;;;;;;;2.95;1.63;;;;;;;5.36;100.00;98340.72;6103269;19;20026;-75
2023/11/16 04:11:02;;;;;;;4.00;1.88;;;;;;;5.35;100.00;98352.84;6101936;19;20510;-75
2023/11/16 04:13:03;;;;;;;3.25;1.27;;;;;;;5.30;100.00;98345.66;6100823;19;20014;-75
2023/11/16 04:15:04;;;;;;;2.97;1.48;;;;;;;5.25;100.00;98342.38;6102145;19;20027;-75
2023/11/16 04:17:09;;;;;;;2.20;1.48;;;;;;;5.23;100.00;98337.22;6100277;19;20086;-75
2023/11/16 04:19:09;;;;;;;4.45;1.50;;;;;;;5.29;100.00;98341.31;6101753;19;20308;-75
2023/11/16 04:21:11;;;;;;;7.80;1.65;;;;;;;5.28;100.00;98336.97;6102680;19;20395;-75
2023/11/16 04:23:12;;;;;;;4.95;1.70;;;;;;;5.30;100.00;98334.69;6101050;19;20011;-75
2023/11/16 04:25:22;;;;;;;5.97;1.85;;;;;;;5.27;100.00;98337.31;6101489;19;20428;-75
2023/11/16 04:27:26;;;;;;;5.28;1.52;;;;;;;5.33;100.00;98330.47;6090975;19;20042;-75
2023/11/16 04:29:32;;;;;;;11.05;2.03;;;;;;;5.35;100.00;98334.44;6100480;19;20010;-75
2023/11/16 04:31:35;;;;;;;4.13;1.80;;;;;;;5.39;100.00;98331.03;6100478;19;20228;-75
2023/11/16 04:33:37;;;;;;;4.63;1.52;;;;;;;5.34;100.00;98332.84;6101961;19;20325;-75
2023/11/16 04:35:38;;;;;;;5.18;1.65;;;;;;;5.31;100.00;98327.28;6102499;19;20032;-75
2023/11/16 04:37:38;;;;;;;3.55;1.50;;;;;;;5.24;100.00;98330.59;6099776;19;20413;-75
2023/11/16 04:39:38;;;;;;;6.78;1.90;;;;;;;5.23;100.00;98333.69;6099327;19;20003;-75
2023/11/16 04:41:42;;;;;;;6.55;1.55;;;;;;;5.17;100.00;98327.63;6100268;19;20033;-75
2023/11/16 04:43:44;;;;;;;2.53;1.27;;;;;;;5.19;100.00;98330.03;6097617;19;20007;-75
2023/11/16 04:45:49;;;;;;;3.67;1.42;;;;;;;5.18;100.00;98333.91;6098344;19;20400;-75
2023/11/16 04:47:50;;;;;;;3.00;1.63;;;;;;;5.15;100.00;98337.34;6092929;19;20002;-75
2023/11/16 04:49:51;;;;;;;6.22;2.00;;;;;;;5.12;100.00;98330.59;6101696;19;20017;-75
2023/11/16 04:51:53;;;;;;;4.13;1.77;;;;;;;5.08;100.00;98333.25;6101074;19;20389;-75
2023/11/16 04:53:53;;;;;;;4.97;1.75;;;;;;;5.12;100.00;98327.06;6099814;19;20029;-75
2023/11/16 04:55:55;;;;;;;4.10;1.90;;;;;;;5.15;100.00;98329.94;6099301;19;20003;-75
2023/11/16 04:57:55;;;;;;;4.10;1.65;;;;;;;5.19;100.00;98321.78;6100573;19;20374;-75
2023/11/16 04:59:55;;;;;;;6.80;1.95;;;;;;;5.26;100.00;98328.28;6100137;19;20044;-75
2023/11/16 05:01:56;;;;;;;6.93;1.77;;;;;;;5.29;100.00;98326.78;6102251;19;20010;-75
2023/11/16 05:03:56;;;;;;;4.47;1.88;;;;;;;5.26;100.00;98332.97;6099780;19;20002;-75
2023/11/16 05:05:57;;;;;;;4.78;1.80;;;;;;;5.25;100.00;98332.19;6100451;19;20331;-75
2023/11/16 05:07:57;;;;;;;5.25;1.67;;;;;;;5.20;100.00;98326.94;6096760;19;19995;-74
2023/11/16 05:09:58;;;;;;;4.13;1.85;;;;;;;5.23;100.00;98323.50;6099246;19;19998;-75
2023/11/16 05:12:00;;;;;;;6.07;1.60;;;;;;;5.24;100.00;98325.09;6101340;19;19999;-75
2023/11/16 05:14:00;;;;;;;4.03;1.63;;;;;;;5.25;100.00;98331.38;6099956;19;20400;-75
2023/11/16 05:16:01;;;;;;;4.05;1.50;;;;;;;5.28;100.00;98334.22;6097952;19;19994;-75
2023/11/16 05:18:04;;;;;;;7.43;3.30;;;;;;;5.25;100.00;98323.97;6097698;19;20022;-75
2023/11/16 05:20:04;;;;;;;5.00;2.05;;;;;;;5.24;100.00;98330.59;6098529;19;20059;-74
2023/11/16 05:22:06;;;;;;;7.82;1.80;;;;;;;5.27;100.00;98326.34;6096369;19;20006;-74
2023/11/16 05:24:07;;;;;;;3.30;1.58;;;;;;;5.31;100.00;98327.28;6097697;19;20011;-75
2023/11/16 05:26:08;;;;;;;7.30;2.13;;;;;;;5.33;100.00;98319.47;6098654;19;19990;-75
2023/11/16 05:28:08;;;;;;;4.72;2.17;;;;;;;5.30;100.00;98326.47;6094679;19;20011;-74
2023/11/16 05:30:10;;;;;;;3.55;1.92;;;;;;;5.30;100.00;98325.66;6091024;19;20058;-75
2023/11/16 05:32:10;;;;;;;6.23;2.00;;;;;;;5.27;100.00;98323.59;6091285;19;20336;-74
2023/11/16 05:34:10;;;;;;;7.13;1.80;;;;;;;5.33;100.00;98320.28;6088564;19;20482;-75
2023/11/16 05:36:11;;;;;;;5.07;1.60;;;;;;;5.36;100.00;98318.78;6088992;19;20028;-75
2023/11/16 05:38:11;;;;;;;5.43;2.08;;;;;;;5.40;100.00;98311.47;6085871;19;20014;-75
2023/11/16 05:40:12;;;;;;;7.60;1.90;;;;;;;5.36;100.00;98316.03;6087389;19;20003;-75
2023/11/16 05:42:12;;;;;;;5.07;1.95;;;;;;;5.34;100.00;98312.84;6086850;19;20027;-75
2023/11/16 05:44:13;;;;;;;6.53;1.70;;;;;;;5.35;100.00;98315.22;6089059;19;20006;-75
2023/11/16 05:46:14;;;;;;;2.50;1.50;;;;;;;5.28;100.00;98300.50;6088939;19;20018;-75
2023/11/16 05:48:15;;;;;;;4.45;1.80;;;;;;;5.24;100.00;98296.88;6091291;19;20443;-75
2023/11/16 05:50:15;;;;;;;2.88;1.60;;;;;;;5.23;100.00;98301.56;6089512;19;20030;-75
2023/11/16 05:52:16;;;;;;;5.15;2.22;;;;;;;5.22;100.00;98291.75;6083676;19;20038;-75
2023/11/16 05:54:17;;;;;;;2.42;1.52;;;;;;;5.22;100.00;98293.69;6089319;19;20024;-75
2023/11/16 05:56:18;;;;;;;4.57;1.92;;;;;;;5.21;100.00;98284.66;6090268;19;20278;-74
2023/11/16 05:58:18;;;;;;;3.90;1.80;;;;;;;5.18;100.00;98281.81;6090677;19;20013;-75
2023/11/16 06:00:20;;;;;;;7.63;2.05;;;;;;;5.18;100.00;98288.09;6090622;19;20003;-75
2023/11/16 06:02:20;;;;;;;6.22;2.05;;;;;;;5.16;100.00;98286.84;6088649;19;20014;-75
2023/11/16 06:04:22;;;;;;;4.72;1.73;;;;;;;5.24;100.00;98286.69;6090319;19;20023;-75
2023/11/16 06:06:23;;;;;;;4.32;1.52;;;;;;;5.29;100.00;98285.66;6089835;19;20455;-75
2023/11/16 06:08:24;;;;;;;2.95;1.60;;;;;;;5.30;100.00;98290.81;6090207;19;20006;-75
2023/11/16 06:10:24;;;;;;;3.00;1.40;;;;;;;5.38;100.00;98285.50;6089472;19;20006;-75
2023/11/16 06:12:25;;;;;;;5.25;1.70;;;;;;;5.37;100.00;98292.94;6089258;19;20018;-75
2023/11/16 06:14:25;;;;;;;3.00;1.67;;;;;;;5.38;100.00;98283.59;6089015;19;20003;-75
2023/11/16 06:16:26;;;;;;;2.55;1.65;;;;;;;5.42;100.00;98289.97;6083568;19;20029;-75
2023/11/16 06:18:26;;;;;;;3.10;1.70;;;;;;;5.42;100.00;98281.72;6088275;19;20019;-75
2023/11/16 06:20:28;;;;;;;9.38;2.40;;;;;;;5.33;100.00;98279.13;6091258;19;20014;-74
2023/11/16 06:22:28;;;;;;;7.78;1.90;;;;;;;5.29;100.00;98272.72;6090185;19;20074;-75
2023/11/16 06:24:29;;;;;;;3.10;2.03;;;;;;;5.27;100.00;98277.78;6090399;19;20114;-75
2023/11/16 06:26:31;;;;;;;2.58;1.60;;;;;;;5.24;100.00;98280.41;6089739;19;20779;-75
2023/11/16 06:28:31;;;;;;;3.30;1.60;;;;;;;5.28;100.00;98290.34;6095114;19;20231;-75
2023/11/16 06:30:31;;;;;;;5.90;1.55;;;;;;;5.27;100.00;98276.97;6100229;19;20011;-75
2023/11/16 06:32:32;;;;;;;4.25;1.52;;;;;;;5.32;100.00;98285.75;6097410;19;20789;-75
2023/11/16 06:34:34;;;;;;;3.70;1.92;;;;;;;5.38;100.00;98278.09;6092527;19;20010;-74
2023/11/16 06:36:37;;;;;;;5.43;1.90;;;;;;;5.44;100.00;98289.59;6093540;19;20082;-75
2023/11/16 06:38:38;;;;;;;5.78;1.80;;;;;;;5.48;100.00;98296.00;6099254;19;21050;-75
2023/11/16 06:40:39;;;;;;;4.55;1.85;;;;;;;5.51;100.00;98296.09;6098190;19;20034;-75
2023/11/16 06:42:40;;;;;;;4.72;2.00;;;;;;;5.45;100.00;98292.00;6098790;19;20345;-75
2023/11/16 06:44:40;;;;;;;5.25;1.65;;;;;;;5.51;100.00;98285.13;6099606;19;20011;-75
2023/11/16 06:46:41;;;;;;;3.70;1.67;;;;;;;5.55;100.00;98277.78;6098648;19;20057;-74
2023/11/16 06:48:42;;;;;;;2.55;1.48;;;;;;;5.64;100.00;98277.66;6098688;19;20007;-75
2023/11/16 06:50:42;;;;;;;3.40;1.80;;;;;;;5.58;100.00;98277.09;6097785;19;20003;-75
2023/11/16 06:52:43;;;;;;;5.65;1.92;;;;;;;5.62;100.00;98286.19;6104456;19;20123;-75
2023/11/16 06:54:44;;;;;;;2.63;1.75;;;;;;;5.69;100.00;98282.88;6104114;19;20006;-75
2023/11/16 06:56:44;;;;;;;4.88;2.20;;;;;;;5.75;100.00;98280.66;6104017;19;20007;-75
2023/11/16 06:58:45;;;;;;;5.25;1.60;;;;;;;5.79;100.00;98284.28;6103729;19;20006;-75
2023/11/16 07:00:50;;;;;;;4.72;1.90;;;;;;;5.81;100.00;98282.03;6104696;19;20006;-75
2023/11/16 07:02:50;;;;;;;4.45;1.83;;;;;;;5.79;100.00;98268.66;6103504;19;20009;-75
2023/11/16 07:04:50;;;;;;;9.23;2.08;;;;;;;5.82;100.00;98276.19;6104172;19;20003;-75
2023/11/16 07:06:52;;;;;;;7.80;2.00;;;;;;;5.93;100.00;98260.00;6102083;19;20028;-75
2023/11/16 07:08:52;;;;;;;6.88;1.60;;;;;;;5.94;100.00;98255.31;6104854;19;20448;-75
2023/11/16 07:10:53;;;;;;;5.07;1.90;;;;;;;6.05;100.00;98270.13;6104143;19;19995;-75
2023/11/16 07:12:53;;;;;;;4.65;1.50;;;;;;;6.05;100.00;98259.94;6102294;19;20637;-74
2023/11/16 07:14:54;;;;;;;7.80;1.70;;;;;;;6.03;100.00;98255.94;6104467;19;19999;-75
2023/11/16 07:16:54;;;;;;;3.78;1.20;;;;;;;5.96;100.00;98262.06;6103183;19;20074;-74
2023/11/16 07:18:55;;;;;;;5.18;1.85;;;;;;;6.00;100.00;98264.88;6101231;19;20010;-74
2023/11/16 07:20:58;;;;;;;3.75;2.00;;;;;;;6.00;100.00;98256.66;6104894;19;20006;-75
2023/11/16 07:22:58;;;;;;;4.20;2.50;;;;;;;6.02;100.00;98259.84;6103397;19;20032;-74
2023/11/16 07:24:58;;;;;;;4.03;1.65;;;;;;;6.08;100.00;98272.16;6103567;19;20336;-75
2023/11/16 07:27:00;;;;;;;4.13;1.60;;;;;;;6.11;100.00;98272.25;6102709;19;20443;-74
2023/11/16 07:29:01;;;;;;;4.03;1.60;;;;;;;6.05;100.00;98265.44;6104102;19;20010;-75
2023/11/16 07:31:01;;;;;;;5.72;1.75;;;;;;;6.08;100.00;98270.22;6104048;19;20009;-75
2023/11/16 07:33:05;;;;;;;4.63;1.70;;;;;;;6.09;100.00;98279.25;6103623;19;20003;-75
2023/11/16 07:35:14;;;;;;;6.07;2.10;;;;;;;6.09;100.00;98265.50;6102228;19;20019;-74
2023/11/16 07:37:15;;;;;;;3.28;1.35;;;;;;;6.14;100.00;98277.03;6101986;19;20006;-75
2023/11/16 07:39:15;;;;;;;3.38;1.60;;;;;;;6.16;100.00;98276.69;6103707;19;20593;-75
2023/11/16 07:41:16;;;;;;;3.38;1.60;;;;;;;6.17;100.00;98276.31;6103347;19;20007;-75
2023/11/16 07:43:16;;;;;;;2.38;1.88;;;;;;;6.14;100.00;98262.50;6102770;19;20329;-74
2023/11/16 07:45:17;;;;;;;5.20;2.08;;;;;;;6.14;100.00;98260.56;6102445;19;20073;-75
2023/11/16 07:47:18;;;;;;;8.73;2.97;;;;;;;6.18;100.00;98266.13;6099468;19;20003;-75
2023/11/16 07:49:19;;;;;;;3.35;1.88;;;;;;;6.19;100.00;98268.53;6102481;19;20095;-75
2023/11/16 07:51:20;;;;;;;3.63;1.80;;;;;;;6.20;100.00;98264.63;6102805;19;20002;-75
2023/11/16 07:53:24;;;;;;;4.50;1.92;;;;;;;6.18;100.00;98261.44;6103642;19;20027;-74
2023/11/16 07:55:25;;;;;;;5.35;1.75;;;;;;;6.19;100.00;98249.28;6103866;19;20003;-75
2023/11/16 07:57:26;;;;;;;2.97;1.70;;;;;;;6.20;100.00;98261.06;6100898;19;20066;-74
2023/11/16 07:59:34;;;;;;;4.75;1.85;;;;;;;6.19;100.00;98254.78;6102224;19;20021;-75
2023/11/16 08:01:50;;;;;;;4.38;1.60;;;;;;;6.24;100.00;98248.25;6103150;19;20010;-75
2023/11/16 08:03:56;;;;;;;4.72;1.70;;;;;;;6.27;100.00;98257.72;6100437;19;20346;-75
2023/11/16 08:05:58;;;;;;;3.95;1.75;;;;;;;6.26;100.00;98258.88;6101037;19;20247;-74
2023/11/16 08:08:00;;;;;;;8.30;2.92;;;;;;;6.29;100.00;98252.66;6102282;19;19999;-75
2023/11/16 08:10:00;;;;;;;7.75;2.28;;;;;;;6.30;100.00;98251.53;6102701;19;20006;-75
2023/11/16 08:12:04;;;;;;;6.80;3.22;;;;;;;6.31;100.00;98256.66;6103612;19;20026;-75
2023/11/16 08:14:06;;;;;;;4.22;2.58;;;;;;;6.39;100.00;98243.91;6102457;19;20023;-74
2023/11/16 08:16:15;;;;;;;9.53;3.87;;;;;;;6.40;100.00;98254.53;6100705;19;20386;-75
2023/11/16 08:18:15;;;;;;;6.68;4.00;;;;;;;6.36;100.00;98253.63;6099817;19;19999;-75
2023/11/16 08:20:22;;;;;;;6.00;3.25;;;;;;;6.41;100.00;98255.31;6102516;19;20029;-74
2023/11/16 08:22:22;;;;;;;3.78;1.90;;;;;;;6.45;100.00;98265.25;6100997;19;20403;-74
2023/11/16 08:24:23;;;;;;;6.05;2.92;;;;;;;6.47;100.00;98253.91;6101267;19;19995;-74
2023/11/16 08:26:25;;;;;;;3.38;2.03;;;;;;;6.51;100.00;98259.47;6101618;19;20350;-74
2023/11/16 08:28:28;;;;;;;5.03;1.90;;;;;;;6.56;100.00;98257.28;6101192;19;20029;-74
2023/11/16 08:30:28;;;;;;;3.38;1.58;;;;;;;6.60;100.00;98265.59;6102988;19;20013;-74
2023/11/16 08:32:29;;;;;;;4.38;2.08;;;;;;;6.63;100.00;98259.41;6102338;19;20010;-76
2023/11/16 08:34:29;;;;;;;5.85;2.03;;;;;;;6.69;100.00;98269.72;6103456;19;20007;-74
2023/11/16 08:36:30;;;;;;;4.60;1.95;;;;;;;6.71;100.00;98250.16;6101095;19;20023;-75
2023/11/16 08:38:31;;;;;;;7.80;3.15;;;;;;;6.78;100.00;98260.50;6102178;19;20529;-74
2023/11/16 08:40:31;;;;;;;8.27;4.00;;;;;;;6.75;100.00;98251.03;6103301;19;20002;-75
2023/11/16 08:42:41;;;;;;;6.38;2.67;;;;;;;6.74;100.00;98263.19;6102904;19;20011;-75
2023/11/16 08:44:44;;;;;;;28.23;10.10;;;;;;;6.71;100.00;98250.94;6101834;19;20028;-75
2023/11/16 08:46:45;;;;;;;17.20;6.18;;;;;;;6.74;100.00;98255.72;6100853;19;20002;-74
2023/11/16 08:48:53;;;;;;;11.85;5.13;;;;;;;6.79;100.00;98257.41;6101560;19;20015;-75
2023/11/16 08:50:55;;;;;;;17.92;6.60;;;;;;;6.78;100.00;98252.25;6101865;19;20013;-75
2023/11/16 08:52:59;;;;;;;12.02;5.78;;;;;;;6.72;100.00;98247.03;6101989;19;20006;-75
2023/11/16 08:55:00;;;;;;;12.18;4.65;;;;;;;6.75;100.00;98253.78;6102872;19;20007;-74
2023/11/16 08:57:00;;;;;;;12.40;5.53;;;;;;;6.76;100.00;98252.59;6101459;19;20003;-74
2023/11/16 08:59:07;;;;;;;13.80;4.57;;;;;;;6.72;100.00;98255.28;6101340;19;20006;-75
2023/11/16 09:01:07;;;;;;;10.13;3.70;;;;;;;6.75;100.00;98251.81;6101493;19;20036;-74
2023/11/16 09:03:08;;;;;;;12.23;4.45;;;;;;;6.78;100.00;98246.75;6101349;19;20015;-74
2023/11/16 09:05:10;;;;;;;20.67;6.53;;;;;;;6.85;100.00;98246.91;6100255;19;20553;-75
2023/11/16 09:07:11;;;;;;;15.38;5.28;;;;;;;6.91;100.00;98257.28;6099981;19;20068;-74
2023/11/16 09:09:33;;;;;;;7.35;3.45;;;;;;;6.93;100.00;98254.16;6101346;19;20015;-75
2023/11/16 09:11:33;;;;;;;4.53;2.60;;;;;;;6.95;100.00;98252.66;6102143;19;20062;-75
2023/11/16 09:13:34;;;;;;;6.38;2.15;;;;;;;6.99;100.00;98255.47;6101016;19;20066;-75
2023/11/16 09:15:35;;;;;;;5.00;1.80;;;;;;;7.00;100.00;98249.63;6100687;19;20010;-74
2023/11/16 09:17:36;;;;;;;3.17;1.77;;;;;;;7.07;100.00;98243.47;6098764;19;20024;-74
2023/11/16 09:19:37;;;;;;;5.45;2.85;;;;;;;7.12;100.00;98250.66;6102016;19;20030;-74
2023/11/16 09:21:39;;;;;;;4.03;1.90;;;;;;;7.12;100.00;98251.47;6101031;19;20008;-75
2023/11/16 09:23:40;;;;;;;9.75;4.00;;;;;;;7.15;100.00;98255.44;6100852;19;20022;-74
2023/11/16 09:25:41;;;;;;;3.40;1.77;;;;;;;7.10;100.00;98248.25;6100784;19;20007;-75
2023/11/16 09:27:42;;;;;;;4.10;1.60;;;;;;;7.09;100.00;98252.16;6089790;19;20516;-74
2023/11/16 09:29:42;;;;;;;3.85;1.95;;;;;;;7.04;100.00;98245.00;6100541;19;20013;-74
2023/11/16 09:31:44;;;;;;;6.85;1.77;;;;;;;7.05;100.00;98240.31;6100372;19;20463;-75
2023/11/16 09:33:44;;;;;;;5.70;1.98;;;;;;;7.07;100.00;98239.94;6100406;19;20332;-75